Time;durP1;ratioP1;P1;durP2;ratioP2;P2;SDS_P1;SDS_P2;PMS_P1;PMS_P2;Temp;Humidity;BMP_temperature;BMP_pressure;BME280_temperature;BME280_humidity;BME280_pressure;Samples;Min_cycle;Max_cycle;Signal;HPM_P1;HPM_P2
2022/08/08 00:02:26;;;;;;;10.70;5.85;;;23.60;99.90;;;;;;5094983;28;20089;-68
2022/08/08 00:05:08;;;;;;;10.77;6.03;;;24.00;99.90;;;;;;5078198;28;20491;-68
2022/08/08 00:08:06;;;;;;;12.07;5.95;;;24.00;99.90;;;;;;5096442;28;20031;-68
2022/08/08 00:10:41;;;;;;;8.82;5.50;;;23.80;99.90;;;;;;5096388;28;20028;-67
2022/08/08 00:13:23;;;;;;;9.90;5.45;;;23.70;99.90;;;;;;5096325;28;20028;-68
2022/08/08 00:16:01;;;;;;;9.70;5.78;;;;;;;;;;5077772;28;20027;-67
2022/08/08 00:18:48;;;;;;;12.77;5.78;;;23.80;99.90;;;;;;5095962;28;20039;-67
2022/08/08 00:21:19;;;;;;;16.05;5.97;;;23.50;99.90;;;;;;5096076;28;20047;-67
2022/08/08 00:23:53;;;;;;;12.75;6.13;;;23.60;99.90;;;;;;5096130;28;20016;-66
2022/08/08 00:26:24;;;;;;;11.38;5.80;;;23.70;99.90;;;;;;5110508;28;20044;-65
2022/08/08 00:29:08;;;;;;;12.07;6.45;;;23.50;99.90;;;;;;5098094;28;20016;-66
2022/08/08 00:31:40;;;;;;;12.80;6.03;;;23.40;99.90;;;;;;5116317;28;20114;-66
2022/08/08 00:37:42;;;;;;;14.10;6.07;;;23.40;99.90;;;;;;5116025;28;20031;-66
2022/08/08 00:40:27;;;;;;;20.48;6.70;;;23.50;99.90;;;;;;5116188;28;20027;-67
2022/08/08 00:43:34;;;;;;;16.70;5.70;;;23.70;99.90;;;;;;5116185;28;20063;-67
2022/08/08 00:46:19;;;;;;;11.35;6.10;;;23.70;99.90;;;;;;4996735;28;20025;-67
2022/08/08 00:49:21;;;;;;;13.68;6.15;;;23.80;99.90;;;;;;4996810;28;20037;-67
2022/08/08 00:52:01;;;;;;;10.75;6.07;;;23.60;99.90;;;;;;4996674;28;20030;-66
2022/08/08 00:54:54;;;;;;;18.15;6.68;;;23.40;99.90;;;;;;5013061;28;20026;-67
2022/08/08 00:57:39;;;;;;;13.18;5.90;;;;;;;;;;5013050;28;20042;-66
2022/08/08 01:00:14;;;;;;;16.55;7.00;;;;;;;;;;5012926;28;20074;-67
2022/08/08 01:02:56;;;;;;;12.25;6.10;;;;;;;;;;4996498;28;20025;-67
2022/08/08 01:05:31;;;;;;;12.43;6.30;;;;;;;;;;5012906;28;20022;-67
2022/08/08 01:08:21;;;;;;;14.13;6.85;;;23.30;99.90;;;;;;5013128;28;20026;-67
2022/08/08 01:11:14;;;;;;;9.77;6.25;;;23.30;99.90;;;;;;5012714;28;20478;-66
2022/08/08 01:14:14;;;;;;;11.70;6.55;;;23.20;99.90;;;;;;5011800;28;20382;-67
2022/08/08 01:17:20;;;;;;;10.02;7.55;;;23.10;99.90;;;;;;5061812;28;20031;-66
2022/08/08 01:20:10;;;;;;;10.40;7.00;;;;;;;;;;5115362;28;20053;-67
2022/08/08 01:22:36;;;;;;;11.10;7.35;;;;;;;;;;5115377;28;20027;-67
2022/08/08 01:25:18;;;;;;;10.82;7.30;;;;;;;;;;5114769;28;20393;-66
2022/08/08 01:28:00;;;;;;;8.93;7.30;;;;;;;;;;5115178;28;20012;-66
2022/08/08 01:30:37;;;;;;;12.15;6.53;;;;;;;;;;5115222;28;20028;-66
2022/08/08 01:33:40;;;;;;;9.50;7.18;;;22.90;99.90;;;;;;5115159;28;20023;-66
2022/08/08 01:36:39;;;;;;;11.70;7.78;;;23.20;99.90;;;;;;5096727;28;20448;-66
2022/08/08 01:39:21;;;;;;;9.80;6.90;;;23.00;99.90;;;;;;5114975;28;20023;-66
2022/08/08 01:42:08;;;;;;;11.13;7.85;;;23.00;99.90;;;;;;5115002;28;20084;-66
2022/08/08 01:44:47;;;;;;;12.93;7.10;;;23.00;99.90;;;;;;5114903;28;20024;-67
2022/08/08 01:47:52;;;;;;;10.88;6.75;;;23.00;99.90;;;;;;5115180;28;20103;-67
2022/08/08 01:50:28;;;;;;;19.80;7.45;;;22.80;99.90;;;;;;5114805;28;20047;-65
2022/08/08 01:53:05;;;;;;;8.73;6.95;;;22.70;99.90;;;;;;5114797;28;20015;-67
2022/08/08 01:55:47;;;;;;;17.83;8.10;;;22.80;99.90;;;;;;5114740;28;20073;-66
2022/08/08 01:58:39;;;;;;;12.00;7.03;;;22.60;99.90;;;;;;5114698;28;20123;-67
2022/08/08 02:01:22;;;;;;;13.52;6.68;;;;;;;;;;5114531;28;20023;-65
2022/08/08 02:03:48;;;;;;;12.00;6.38;;;;;;;;;;5114831;28;20027;-65
2022/08/08 02:06:20;;;;;;;10.85;6.93;;;;;;;;;;5114452;28;20076;-66
2022/08/08 02:08:58;;;;;;;11.52;6.90;;;22.40;99.90;;;;;;5096201;28;20466;-66
2022/08/08 02:11:36;;;;;;;13.63;7.15;;;;;;;;;;5114388;28;20496;-65
2022/08/08 02:14:11;;;;;;;12.68;6.65;;;22.30;99.90;;;;;;5095887;28;20020;-66
2022/08/08 02:16:42;;;;;;;13.57;7.25;;;;;;;;;;5114343;28;20155;-66
2022/08/08 02:19:08;;;;;;;;;;;;;;;;;;5096453;28;20051;-63
2022/08/08 02:24:33;;;;;;;12.23;7.50;;;;;;;;;;5113992;28;20034;-66
2022/08/08 02:27:25;;;;;;;8.40;6.65;;;22.20;99.90;;;;;;5114156;28;20032;-66
2022/08/08 02:30:07;;;;;;;8.38;7.00;;;22.40;99.90;;;;;;5114115;28;20482;-66
2022/08/08 02:32:41;;;;;;;12.65;6.30;;;22.50;99.90;;;;;;5114156;28;20081;-66
2022/08/08 02:35:10;;;;;;;16.25;7.68;;;22.50;99.90;;;;;;5114059;28;20023;-66
2022/08/08 02:38:00;;;;;;;13.40;7.53;;;22.50;99.90;;;;;;5113941;28;20069;-66
2022/08/08 02:40:42;;;;;;;14.50;7.90;;;22.40;99.90;;;;;;5113793;28;20019;-67
2022/08/08 02:43:08;;;;;;;15.20;8.82;;;;;;;;;;5113872;28;20035;-67
2022/08/08 02:45:53;;;;;;;17.48;11.27;;;;;;;;;;5113782;28;20024;-67
2022/08/08 02:48:37;;;;;;;15.82;12.15;;;;;;;;;;5113757;28;20073;-66
2022/08/08 02:51:19;;;;;;;22.85;13.45;;;;;;;;;;5113759;28;20038;-66
2022/08/08 02:53:56;;;;;;;17.77;11.07;;;;;;;;;;5095515;28;20047;-66
2022/08/08 02:56:50;;;;;;;19.52;11.60;;;;;;;;;;5113677;28;20063;-66
2022/08/08 02:59:36;;;;;;;15.27;11.63;;;;;;;;;;5095344;28;20038;-66
2022/08/08 03:02:02;;;;;;;16.58;11.63;;;;;;;;;;5113341;28;20473;-65
2022/08/08 03:04:31;;;;;;;13.95;10.75;;;;;;;;;;5095397;28;20149;-65
2022/08/08 03:07:15;;;;;;;15.05;9.18;;;;;;;;;;5113583;28;20015;-66
2022/08/08 03:09:42;;;;;;;26.45;10.80;;;;;;;;;;5113821;28;20038;-65
2022/08/08 03:12:19;;;;;;;14.45;9.80;;;;;;;;;;5113532;28;20023;-66
2022/08/08 03:14:50;;;;;;;19.63;10.32;;;;;;;;;;5113519;28;20024;-66
2022/08/08 03:17:16;;;;;;;22.15;10.82;;;;;;;;;;5113571;28;20020;-65
2022/08/08 03:20:04;;;;;;;22.50;10.25;;;;;;;;;;5113065;28;20363;-66
2022/08/08 03:22:33;;;;;;;17.75;8.95;;;;;;;;;;5113657;28;20457;-66
2022/08/08 03:25:00;;;;;;;19.27;10.43;;;;;;;;;;5113125;28;20050;-65
2022/08/08 03:27:27;;;;;;;17.25;10.23;;;;;;;;;;5113386;28;20023;-67
2022/08/08 03:29:56;;;;;;;15.73;9.05;;;;;;;;;;5113441;28;20122;-67
2022/08/08 03:35:07;;;;;;;25.98;10.18;;;;;;;;;;5113129;28;20486;-67
2022/08/08 03:37:34;;;;;;;16.00;10.30;;;;;;;;;;5116980;28;20119;-67
2022/08/08 03:40:00;;;;;;;13.45;9.43;;;;;;;;;;5117399;28;20019;-67
2022/08/08 03:42:27;;;;;;;14.77;9.55;;;;;;;;;;5117254;28;20053;-66
2022/08/08 03:44:53;;;;;;;17.10;9.10;;;;;;;;;;5098994;28;20054;-67
2022/08/08 03:47:20;;;;;;;18.10;10.50;;;;;;;;;;5098820;28;20023;-67
2022/08/08 03:49:47;;;;;;;24.48;9.90;;;;;;;;;;5117130;28;20019;-66
2022/08/08 03:52:14;;;;;;;16.52;10.25;;;;;;;;;;5117110;28;20051;-66
2022/08/08 03:54:44;;;;;;;11.27;9.68;;;;;;;;;;5098830;28;20019;-67
2022/08/08 03:57:14;;;;;;;13.93;9.30;;;;;;;;;;5116994;28;20460;-67
2022/08/08 03:59:40;;;;;;;15.35;8.73;;;;;;;;;;5116893;28;20034;-67
2022/08/08 04:02:19;;;;;;;15.30;9.32;;;;;;;;;;5116923;28;20015;-67
2022/08/08 04:04:45;;;;;;;12.18;8.95;;;22.00;99.90;;;;;;5098612;28;20019;-67
2022/08/08 04:07:11;;;;;;;14.50;7.82;;;22.30;99.90;;;;;;5116827;28;20024;-66
2022/08/08 04:09:38;;;;;;;13.25;8.13;;;22.20;99.90;;;;;;5116738;28;20062;-67
2022/08/08 04:12:04;;;;;;;20.50;9.40;;;22.30;99.90;;;;;;5116739;28;20019;-66
2022/08/08 04:14:30;;;;;;;13.15;9.13;;;22.10;99.90;;;;;;5116678;28;20040;-67
2022/08/08 04:16:56;;;;;;;13.52;9.70;;;22.00;99.90;;;;;;5098361;28;20024;-66
2022/08/08 04:19:22;;;;;;;10.07;8.38;;;22.10;99.90;;;;;;5116462;28;20340;-65
2022/08/08 04:21:48;;;;;;;15.85;8.18;;;22.20;99.90;;;;;;5116551;28;20069;-67
2022/08/08 04:24:14;;;;;;;15.23;8.85;;;22.40;99.90;;;;;;5116266;28;20023;-65
2022/08/08 04:26:39;;;;;;;14.20;8.57;;;22.20;99.90;;;;;;5097683;28;20050;-67
2022/08/08 04:29:05;;;;;;;11.45;8.45;;;;;;;;;;5116640;28;20038;-66
2022/08/08 04:31:31;;;;;;;14.48;8.70;;;22.60;99.90;;;;;;5116593;28;20027;-67
2022/08/08 04:33:57;;;;;;;14.13;8.00;;;22.30;99.90;;;;;;5116360;28;20024;-67
2022/08/08 04:36:23;;;;;;;11.73;8.57;;;22.30;99.90;;;;;;5116195;28;20030;-67
2022/08/08 04:38:49;;;;;;;12.13;8.60;;;22.20;99.90;;;;;;5116437;28;20107;-66
2022/08/08 04:41:14;;;;;;;11.45;8.40;;;22.20;99.90;;;;;;5116073;28;20375;-67
2022/08/08 04:43:40;;;;;;;13.27;8.77;;;22.10;99.90;;;;;;5116151;28;20023;-66
2022/08/08 04:46:06;;;;;;;11.85;8.73;;;22.10;99.90;;;;;;5097718;28;20437;-66
2022/08/08 04:48:32;;;;;;;18.65;9.30;;;22.00;99.90;;;;;;5115911;28;20093;-66
2022/08/08 04:50:58;;;;;;;16.13;9.30;;;22.00;99.90;;;;;;5115991;28;20401;-65
2022/08/08 04:53:24;;;;;;;16.58;9.38;;;22.00;99.90;;;;;;5115967;28;20081;-65
2022/08/08 04:55:50;;;;;;;18.73;10.18;;;22.00;99.90;;;;;;5116134;28;20065;-64
2022/08/08 04:58:16;;;;;;;17.35;9.90;;;22.00;99.90;;;;;;5115812;28;20016;-66
2022/08/08 05:00:42;;;;;;;14.13;9.82;;;22.00;99.90;;;;;;5115727;28;20066;-65
2022/08/08 05:03:08;;;;;;;16.13;9.18;;;22.00;99.90;;;;;;5115453;28;20051;-67
2022/08/08 05:05:34;;;;;;;17.00;10.02;;;22.20;99.90;;;;;;5115684;28;20055;-67
2022/08/08 05:08:00;;;;;;;15.57;8.65;;;22.20;99.90;;;;;;5115638;28;20023;-67
2022/08/08 05:10:28;;;;;;;15.13;9.85;;;22.40;99.90;;;;;;5097231;28;20475;-66
2022/08/08 05:12:55;;;;;;;19.73;10.48;;;22.30;99.90;;;;;;5115520;28;20102;-66
2022/08/08 05:15:21;;;;;;;13.70;10.07;;;22.30;99.90;;;;;;5115470;28;20027;-64
2022/08/08 05:17:47;;;;;;;14.57;9.32;;;22.30;99.90;;;;;;5115372;28;20029;-64
2022/08/08 05:20:13;;;;;;;13.48;9.80;;;22.40;99.90;;;;;;5096997;28;20040;-65
2022/08/08 05:22:39;;;;;;;18.85;10.57;;;22.40;99.90;;;;;;5097055;28;20341;-65
2022/08/08 05:25:06;;;;;;;19.23;10.05;;;22.50;99.90;;;;;;5114817;28;20044;-65
2022/08/08 05:27:31;;;;;;;14.35;9.35;;;22.50;99.90;;;;;;5096982;28;20088;-65
2022/08/08 05:29:57;;;;;;;12.82;9.38;;;22.60;99.90;;;;;;5115216;28;20023;-65
2022/08/08 05:32:23;;;;;;;12.80;9.75;;;22.60;99.90;;;;;;5115413;28;20023;-66
2022/08/08 05:34:51;;;;;;;18.63;10.40;;;22.60;99.90;;;;;;5115164;28;20027;-65
2022/08/08 05:37:22;;;;;;;12.30;8.88;;;22.70;99.90;;;;;;5114944;28;20020;-65
2022/08/08 05:39:53;;;;;;;19.25;9.60;;;;;;;;;;5114888;28;20023;-65
2022/08/08 05:42:35;;;;;;;11.02;9.48;;;;;;;;;;5114988;28;20110;-65
2022/08/08 05:45:01;;;;;;;;;;;;;;;;;;5115379;28;20016;-66
2022/08/08 05:47:27;;;;;;;14.40;9.65;;;;;;;;;;5096504;28;19900;-66
2022/08/08 05:49:54;;;;;;;17.95;7.95;;;22.80;99.90;;;;;;5114994;28;20027;-65
2022/08/08 05:52:19;;;;;;;10.52;8.43;;;23.00;99.90;;;;;;5114711;28;20012;-65
2022/08/08 05:54:45;;;;;;;17.85;8.95;;;23.00;99.90;;;;;;5114790;28;20054;-67
2022/08/08 05:57:15;;;;;;;13.27;8.32;;;23.10;99.90;;;;;;5114844;28;20059;-66
2022/08/08 05:59:48;;;;;;;11.05;8.07;;;23.30;99.90;;;;;;5113928;28;20028;-67
2022/08/08 06:05:08;;;;;;;24.20;8.90;;;23.60;99.90;;;;;;5114466;28;20062;-67
2022/08/08 06:07:35;;;;;;;13.32;8.50;;;23.70;99.90;;;;;;5114446;28;20111;-66
2022/08/08 06:10:02;;;;;;;22.85;8.05;;;23.70;99.90;;;;;;5096082;28;20039;-66
2022/08/08 06:12:31;;;;;;;13.75;8.43;;;23.80;99.90;;;;;;5114354;28;20043;-67
2022/08/08 06:14:59;;;;;;;12.93;7.50;;;23.90;99.90;;;;;;5095941;28;20024;-67
2022/08/08 06:17:26;;;;;;;10.38;7.13;;;23.90;99.90;;;;;;5114177;28;20020;-64
2022/08/08 06:19:54;;;;;;;12.98;7.32;;;24.20;99.90;;;;;;5095781;28;20460;-65
2022/08/08 06:22:19;;;;;;;14.60;6.95;;;24.30;99.90;;;;;;5096212;28;20409;-64
2022/08/08 06:24:45;;;;;;;12.57;6.10;;;24.50;99.90;;;;;;5095629;28;20058;-64
2022/08/08 06:27:12;;;;;;;15.80;7.43;;;;;;;;;;5114053;28;20034;-64
2022/08/08 06:29:45;;;;;;;12.55;7.03;;;;;;;;;;5114001;28;20024;-65
2022/08/08 06:32:15;;;;;;;13.55;5.82;;;24.50;99.90;;;;;;5095759;28;20329;-65
2022/08/08 06:34:45;;;;;;;9.13;5.70;;;24.90;99.90;;;;;;5113995;28;20023;-65
2022/08/08 06:37:12;;;;;;;11.20;5.97;;;;;;;;;;5095737;28;20110;-64
2022/08/08 06:39:43;;;;;;;9.50;5.25;;;;;;;;;;5113819;28;20288;-65
2022/08/08 06:42:12;;;;;;;6.65;4.60;;;;;;;;;;5113813;28;20458;-65
2022/08/08 06:44:41;;;;;;;7.45;5.60;;;;;;;;;;5113854;28;20054;-64
2022/08/08 06:47:07;;;;;;;7.75;5.18;;;;;;;;;;5113754;28;20019;-65
2022/08/08 06:49:33;;;;;;;7.40;4.93;;;;;;;;;;5095403;28;20464;-65
2022/08/08 06:52:00;;;;;;;6.68;5.07;;;;;;;;;;5113692;28;20024;-65
2022/08/08 06:54:27;;;;;;;11.30;5.65;;;;;;;;;;5113996;28;20397;-65
2022/08/08 06:56:53;;;;;;;5.65;5.15;;;;;;;;;;5095379;28;20352;-65
2022/08/08 06:59:20;;;;;;;9.63;4.90;;;;;;;;;;5095315;28;20047;-65
2022/08/08 07:01:56;;;;;;;10.70;5.28;;;;;;;;;;5095233;28;20055;-64
2022/08/08 07:04:23;;;;;;;11.32;4.63;;;;;;;;;;5112828;28;20031;-64
2022/08/08 07:06:54;;;;;;;10.93;5.38;;;;;;;;;;5113489;28;20016;-63
2022/08/08 07:09:20;;;;;;;;;;;;;;;;;;5114073;28;20030;-63
2022/08/08 07:11:50;;;;;;;10.25;5.10;;;;;;;;;;5115808;28;19938;-64
2022/08/08 07:14:17;;;;;;;12.68;5.28;;;;;;;;;;5114879;28;20058;-69
2022/08/08 07:16:48;;;;;;;6.28;5.22;;;;;;;;;;5099557;28;20024;-65
2022/08/08 07:19:19;;;;;;;6.40;4.63;;;25.80;99.90;;;;;;5106197;28;20472;-68
2022/08/08 07:22:05;;;;;;;6.70;5.10;;;;;;;;;;5117526;28;20112;-65
2022/08/08 07:24:35;;;;;;;9.52;4.78;;;;;;;;;;5117689;28;20020;-67
2022/08/08 07:27:01;;;;;;;11.13;4.47;;;;;;;;;;5110676;28;20557;-67
2022/08/08 07:29:29;;;;;;;11.75;5.28;;;;;;;;;;5090802;27;20470;-67
2022/08/08 07:31:55;;;;;;;7.57;4.57;;;;;;;;;;5106451;28;20348;-67
2022/08/08 07:34:21;;;;;;;8.10;5.00;;;25.80;99.90;;;;;;5096922;28;20108;-69
2022/08/08 07:36:50;;;;;;;6.45;5.00;;;26.60;99.90;;;;;;5095482;28;20028;-65
2022/08/08 07:39:23;;;;;;;13.65;5.00;;;26.50;99.90;;;;;;5097642;28;20028;-65
2022/08/08 07:41:49;;;;;;;10.73;5.80;;;26.60;99.90;;;;;;5117039;28;20015;-69
2022/08/08 07:44:17;;;;;;;5.50;4.75;;;26.70;99.90;;;;;;5116730;28;20081;-65
2022/08/08 07:46:44;;;;;;;7.32;4.80;;;26.80;99.90;;;;;;5117127;28;20015;-66
2022/08/08 07:49:12;;;;;;;11.75;5.22;;;27.00;99.90;;;;;;5115188;28;20055;-67
2022/08/08 07:51:40;;;;;;;11.55;5.00;;;27.10;99.90;;;;;;5116566;28;20034;-66
2022/08/08 07:54:36;;;;;;;6.15;4.97;;;27.20;99.90;;;;;;5116725;28;20028;-69
2022/08/08 07:57:23;;;;;;;7.15;4.68;;;27.30;99.90;;;;;;5116386;28;20055;-67
2022/08/08 08:00:04;;;;;;;8.02;4.97;;;27.00;99.90;;;;;;5115434;28;20479;-68
2022/08/08 08:02:46;;;;;;;7.80;4.72;;;27.20;99.90;;;;;;5116518;28;20024;-66
2022/08/08 08:05:25;;;;;;;213.90;80.85;;;27.30;99.90;;;;;;5106950;28;20024;-66
2022/08/08 08:08:05;;;;;;;21.83;11.43;;;27.40;99.90;;;;;;5113542;28;20038;-68
2022/08/08 08:10:33;;;;;;;14.20;6.70;;;27.50;99.90;;;;;;5116608;28;20024;-66
2022/08/08 08:13:26;;;;;;;6.88;4.85;;;27.60;99.90;;;;;;5116411;28;20092;-66
2022/08/08 08:16:00;;;;;;;10.82;6.53;;;27.60;99.90;;;;;;5053423;28;20520;-66
2022/08/08 08:18:28;;;;;;;30.65;14.23;;;;;;;;;;5097344;28;20117;-64
2022/08/08 08:20:54;;;;;;;35.78;14.73;;;28.00;99.90;;;;;;5116274;28;20019;-65
2022/08/08 08:23:20;;;;;;;5.30;4.78;;;28.20;99.90;;;;;;5097481;28;20034;-67
2022/08/08 08:25:46;;;;;;;15.43;7.75;;;28.40;99.90;;;;;;5115971;28;20039;-65
2022/08/08 08:28:12;;;;;;;8.75;4.70;;;28.50;99.90;;;;;;5115806;28;20050;-64
2022/08/08 08:30:41;;;;;;;16.17;6.25;;;28.70;99.90;;;;;;5115706;28;20028;-65
2022/08/08 08:33:07;;;;;;;28.50;10.05;;;28.80;99.90;;;;;;5116111;28;20035;-67
2022/08/08 08:35:33;;;;;;;11.57;5.25;;;28.90;99.90;;;;;;5116119;28;20031;-69
2022/08/08 08:37:59;;;;;;;11.93;5.25;;;28.90;99.60;;;;;;5115827;28;20458;-69
2022/08/08 08:40:26;;;;;;;5.53;4.88;;;29.10;99.60;;;;;;5115498;28;20039;-70
2022/08/08 08:42:53;;;;;;;10.48;5.18;;;29.20;99.30;;;;;;5115984;28;20023;-69
2022/08/08 08:45:20;;;;;;;12.20;4.47;;;29.40;99.40;;;;;;5115906;28;20444;-69
2022/08/08 08:47:47;;;;;;;12.70;5.10;;;29.50;98.80;;;;;;5115635;28;20032;-68
2022/08/08 08:50:13;;;;;;;7.22;5.20;;;29.70;98.70;;;;;;5115428;28;20020;-67
2022/08/08 08:52:42;;;;;;;5.97;5.38;;;29.80;98.30;;;;;;5115002;28;20030;-66
2022/08/08 08:55:14;;;;;;;11.63;6.18;;;29.90;98.20;;;;;;5115791;28;20015;-67
2022/08/08 08:57:43;;;;;;;14.70;5.32;;;30.00;98.00;;;;;;5115709;28;20026;-66
2022/08/08 09:00:10;;;;;;;10.20;5.70;;;30.00;97.50;;;;;;5097413;28;20028;-67
2022/08/08 09:02:37;;;;;;;9.00;5.65;;;30.00;97.60;;;;;;5115744;28;20502;-67
2022/08/08 09:05:06;;;;;;;10.00;5.32;;;30.20;97.80;;;;;;5097065;28;20443;-67
2022/08/08 09:07:36;;;;;;;10.82;5.28;;;30.20;97.70;;;;;;5113588;28;20019;-67
2022/08/08 09:10:03;;;;;;;7.13;5.03;;;30.20;97.20;;;;;;5096864;28;20016;-68
2022/08/08 09:12:33;;;;;;;6.25;4.90;;;30.30;97.10;;;;;;5099565;28;20075;-69
2022/08/08 09:14:59;;;;;;;6.68;5.05;;;30.50;96.90;;;;;;5115181;28;20042;-68
2022/08/08 09:17:25;;;;;;;8.60;5.03;;;30.60;96.50;;;;;;5115389;28;20467;-67
2022/08/08 09:19:57;;;;;;;12.00;5.15;;;30.80;96.20;;;;;;5115207;28;20031;-68
2022/08/08 09:22:23;;;;;;;;;;;30.90;95.70;;;;;;5115727;28;20036;-68
2022/08/08 09:24:50;;;;;;;10.18;5.32;;;30.90;95.50;;;;;;5114965;28;19907;-71
2022/08/08 09:27:17;;;;;;;7.30;4.93;;;31.00;95.50;;;;;;5115173;28;20019;-69
2022/08/08 09:29:51;;;;;;;10.35;5.47;;;31.10;95.10;;;;;;5096809;28;20084;-70
2022/08/08 09:32:25;;;;;;;8.30;5.03;;;;;;;;;;5114500;28;20383;-69
2022/08/08 09:34:54;;;;;;;9.50;5.40;;;31.30;94.40;;;;;;5095821;28;20016;-68
2022/08/08 09:37:28;;;;;;;10.45;4.93;;;31.50;94.10;;;;;;5096365;28;20077;-68
2022/08/08 09:40:09;;;;;;;7.65;4.85;;;31.60;94.40;;;;;;5114990;28;20422;-68
2022/08/08 09:42:37;;;;;;;7.57;4.78;;;31.80;93.90;;;;;;5114889;28;20023;-70
2022/08/08 09:45:09;;;;;;;9.13;5.07;;;32.00;93.80;;;;;;5114165;28;20461;-70
2022/08/08 09:47:39;;;;;;;12.38;4.82;;;32.00;93.40;;;;;;5096226;28;20019;-69
2022/08/08 09:50:18;;;;;;;8.93;4.97;;;31.70;92.80;;;;;;5114886;28;20033;-67
2022/08/08 09:52:52;;;;;;;10.57;4.45;;;32.00;92.80;;;;;;5114685;28;20100;-69
2022/08/08 09:55:20;;;;;;;10.38;4.38;;;32.30;92.60;;;;;;5114457;28;20011;-70
2022/08/08 09:57:55;;;;;;;11.30;4.65;;;32.50;92.10;;;;;;5096229;28;20111;-68
2022/08/08 10:00:24;;;;;;;13.00;4.63;;;32.50;92.30;;;;;;5114083;28;20027;-69
2022/08/08 10:02:54;;;;;;;14.90;4.57;;;32.60;92.00;;;;;;5114484;28;20047;-67
2022/08/08 10:05:24;;;;;;;7.82;3.88;;;32.50;91.40;;;;;;5114456;28;20016;-69
2022/08/08 10:07:50;;;;;;;7.63;4.95;;;32.50;91.30;;;;;;5114446;28;20015;-69
2022/08/08 10:10:34;;;;;;;8.45;3.97;;;32.60;90.80;;;;;;5110833;28;20028;-67
2022/08/08 10:13:15;;;;;;;10.57;4.18;;;33.10;90.50;;;;;;5109006;28;20055;-68
2022/08/08 10:15:41;;;;;;;;;;;;;;;;;;5094273;28;20353;-70
2022/08/08 10:18:07;;;;;;;8.13;3.70;;;33.60;89.90;;;;;;5094045;28;19900;-66
2022/08/08 10:20:44;;;;;;;14.35;4.30;;;;;;;;;;5093710;28;20356;-70
2022/08/08 10:23:11;;;;;;;11.35;4.30;;;;;;;;;;5093783;28;20030;-69
2022/08/08 10:25:41;;;;;;;7.75;3.90;;;;;;;;;;5102021;28;20046;-69
2022/08/08 10:28:20;;;;;;;12.88;3.45;;;34.20;84.40;;;;;;5113895;28;20019;-68
2022/08/08 10:30:58;;;;;;;5.93;3.42;;;34.20;84.70;;;;;;5113662;28;20544;-70
2022/08/08 10:33:31;;;;;;;10.13;3.60;;;34.80;83.00;;;;;;5113406;28;20011;-70
2022/08/08 10:36:03;;;;;;;7.30;3.70;;;34.70;81.40;;;;;;5108473;28;20089;-69
2022/08/08 10:38:34;;;;;;;4.60;3.30;;;35.10;81.20;;;;;;5110956;28;20095;-69
2022/08/08 10:41:03;;;;;;;7.05;3.28;;;35.60;81.60;;;;;;5113355;28;20035;-69
2022/08/08 10:43:40;;;;;;;9.25;3.03;;;36.10;80.40;;;;;;5113553;28;20366;-69
2022/08/08 10:46:24;;;;;;;17.30;3.25;;;36.90;75.90;;;;;;5113105;28;20030;-69
2022/08/08 10:48:55;;;;;;;9.60;3.30;;;37.00;75.20;;;;;;5113330;28;20020;-69
2022/08/08 10:51:22;;;;;;;13.23;3.33;;;37.20;75.80;;;;;;5095274;28;20022;-68
2022/08/08 10:53:49;;;;;;;7.18;3.08;;;36.80;73.90;;;;;;5113421;28;20049;-68
2022/08/08 10:56:16;;;;;;;11.00;3.22;;;37.50;73.80;;;;;;5113347;28;20084;-68
2022/08/08 10:58:43;;;;;;;8.90;3.00;;;;;;;;;;5095085;28;20024;-69
2022/08/08 11:01:09;;;;;;;9.48;3.10;;;38.90;70.20;;;;;;5095055;28;20023;-70
2022/08/08 11:03:44;;;;;;;4.35;3.00;;;39.80;69.30;;;;;;5113496;28;20020;-69
2022/08/08 11:06:11;;;;;;;9.43;3.35;;;40.20;67.60;;;;;;5113095;28;20054;-69
2022/08/08 11:08:39;;;;;;;5.18;2.88;;;40.40;65.50;;;;;;5094887;28;20046;-71
2022/08/08 11:11:07;;;;;;;9.98;3.38;;;40.00;65.00;;;;;;5113371;28;20035;-70
2022/08/08 11:13:39;;;;;;;5.28;2.90;;;39.80;65.00;;;;;;5113389;28;20406;-69
2022/08/08 11:16:11;;;;;;;7.78;2.72;;;39.60;64.40;;;;;;5112772;28;20020;-70
2022/08/08 11:18:38;;;;;;;12.48;2.90;;;40.30;64.00;;;;;;5113016;28;20535;-70
2022/08/08 11:21:06;;;;;;;6.07;2.80;;;41.10;63.50;;;;;;5112768;28;20039;-70
2022/08/08 11:23:33;;;;;;;7.13;2.95;;;41.20;63.10;;;;;;5113017;28;20053;-71
2022/08/08 11:26:04;;;;;;;4.65;2.97;;;41.50;62.60;;;;;;5113113;28;20051;-72
2022/08/08 11:28:34;;;;;;;7.78;3.42;;;41.60;61.40;;;;;;5113123;28;20036;-70
2022/08/08 11:31:05;;;;;;;9.00;3.47;;;41.60;61.60;;;;;;5094901;28;20122;-71
2022/08/08 11:33:35;;;;;;;12.35;3.15;;;41.80;60.90;;;;;;5112906;28;20099;-72
2022/08/08 11:36:01;;;;;;;;;;;42.40;60.80;;;;;;5113714;28;20024;-72
2022/08/08 11:38:27;;;;;;;5.72;3.17;;;42.60;60.20;;;;;;5113141;28;19952;-71
2022/08/08 11:40:54;;;;;;;6.97;3.33;;;42.80;59.30;;;;;;5113100;28;20080;-72
2022/08/08 11:43:23;;;;;;;6.63;2.97;;;42.60;59.60;;;;;;5112961;28;20027;-73
2022/08/08 11:45:50;;;;;;;7.72;3.60;;;43.00;58.90;;;;;;5094739;28;20027;-73
2022/08/08 11:48:17;;;;;;;9.05;3.00;;;43.60;65.10;;;;;;5113137;28;20016;-73
2022/08/08 11:50:44;;;;;;;10.27;3.25;;;43.90;57.00;;;;;;5112697;28;20450;-70
2022/08/08 11:53:11;;;;;;;6.82;3.80;;;43.80;57.00;;;;;;5094552;28;20032;-68
2022/08/08 11:55:57;;;;;;;5.97;3.47;;;43.60;56.90;;;;;;5112792;28;20447;-68
2022/08/08 11:58:41;;;;;;;6.13;3.50;;;;;;;;;;5097138;28;20027;-68
2022/08/08 12:01:07;;;;;;;8.63;3.72;;;44.90;78.00;;;;;;5116982;28;20027;-70
2022/08/08 12:03:33;;;;;;;5.13;3.78;;;44.00;56.10;;;;;;5116728;28;20034;-70
2022/08/08 12:06:10;;;;;;;4.00;3.35;;;44.20;56.60;;;;;;5116587;28;20019;-67
2022/08/08 12:08:36;;;;;;;3.85;3.53;;;44.20;56.70;;;;;;5116907;28;20020;-68
2022/08/08 12:11:08;;;;;;;9.20;3.80;;;44.20;55.60;;;;;;5116491;28;20098;-69
2022/08/08 12:13:34;;;;;;;4.55;3.45;;;;;;;;;;5116787;28;20015;-69
2022/08/08 12:16:15;;;;;;;8.13;3.75;;;45.30;54.90;;;;;;5116668;28;20077;-69
2022/08/08 12:18:49;;;;;;;4.70;3.08;;;46.10;59.40;;;;;;5116720;28;20700;-70
2022/08/08 12:21:33;;;;;;;3.30;3.00;;;46.10;64.90;;;;;;5098324;28;20356;-69
2022/08/08 12:24:13;;;;;;;4.22;3.40;;;46.10;61.30;;;;;;5116527;28;20486;-69
2022/08/08 12:26:40;;;;;;;3.92;3.67;;;45.90;53.10;;;;;;5115292;28;20027;-69
2022/08/08 12:29:31;;;;;;;7.82;3.50;;;45.70;53.70;;;;;;5114764;28;20486;-69
2022/08/08 12:32:04;;;;;;;8.10;3.95;;;46.70;52.80;;;;;;5115097;28;20088;-69
2022/08/08 12:34:38;;;;;;;6.55;3.90;;;46.50;53.40;;;;;;5097684;28;20078;-70
2022/08/08 12:37:05;;;;;;;4.57;4.05;;;46.50;52.30;;;;;;5112709;28;20047;-70
2022/08/08 12:39:31;;;;;;;4.38;3.78;;;;;;;;;;5097507;28;20020;-71
2022/08/08 12:41:58;;;;;;;7.65;3.95;;;46.70;52.90;;;;;;5097932;28;20019;-69
2022/08/08 12:44:28;;;;;;;6.80;4.10;;;46.10;52.20;;;;;;5116177;28;20019;-70
2022/08/08 12:46:55;;;;;;;;;;;;;;;;;;5098547;28;20360;-69
2022/08/08 12:49:27;;;;;;;6.70;3.50;;;;;;;;;;5115730;28;19907;-70
2022/08/08 12:51:53;;;;;;;4.63;4.07;;;;;;;;;;5097670;28;20079;-70
2022/08/08 12:54:21;;;;;;;4.82;3.60;;;48.20;50.90;;;;;;5115952;28;20516;-70
2022/08/08 12:56:47;;;;;;;8.98;3.90;;;49.00;50.20;;;;;;5097580;28;20106;-68
2022/08/08 12:59:21;;;;;;;3.85;3.55;;;48.40;50.00;;;;;;5116128;28;20016;-71
2022/08/08 13:01:53;;;;;;;6.30;3.33;;;49.10;50.60;;;;;;5111817;27;20036;-71
2022/08/08 13:04:25;;;;;;;9.13;3.90;;;48.30;50.10;;;;;;5122345;27;20034;-69
2022/08/08 13:07:00;;;;;;;6.43;3.80;;;48.40;50.40;;;;;;5136015;27;20360;-68
2022/08/08 13:09:52;;;;;;;7.72;3.83;;;;;;;;;;5134727;27;20018;-70
2022/08/08 13:12:24;;;;;;;4.65;3.58;;;45.10;51.00;;;;;;5131210;27;20019;-70
2022/08/08 13:14:53;;;;;;;4.65;4.35;;;42.70;54.30;;;;;;5135767;27;20050;-69
2022/08/08 13:17:28;;;;;;;5.47;4.35;;;40.20;56.60;;;;;;5135980;27;20019;-68
2022/08/08 13:19:54;;;;;;;6.22;4.00;;;39.00;57.20;;;;;;5135808;27;20027;-70
2022/08/08 13:22:21;;;;;;;4.32;3.92;;;38.90;58.70;;;;;;5117197;27;20019;-69
2022/08/08 13:24:47;;;;;;;8.50;3.90;;;39.60;58.90;;;;;;5135551;27;20019;-68
2022/08/08 13:27:20;;;;;;;7.85;4.65;;;39.90;59.30;;;;;;5135629;27;20015;-69
2022/08/08 13:29:53;;;;;;;6.78;3.92;;;40.90;57.00;;;;;;5135483;27;20030;-69
2022/08/08 13:32:24;;;;;;;4.40;3.75;;;41.90;56.20;;;;;;5135505;27;20033;-69
2022/08/08 13:34:51;;;;;;;5.00;3.60;;;;;;;;;;5135568;27;20149;-69
2022/08/08 13:37:18;;;;;;;10.82;4.30;;;44.10;55.50;;;;;;5135423;27;20359;-69
2022/08/08 13:39:54;;;;;;;4.63;3.58;;;47.60;51.90;;;;;;5135177;27;20115;-70
2022/08/08 13:42:21;;;;;;;8.07;4.32;;;48.70;50.60;;;;;;5135435;27;20459;-70
2022/08/08 13:45:11;;;;;;;5.50;3.45;;;49.00;50.10;;;;;;5116683;27;20463;-68
2022/08/08 13:47:40;;;;;;;9.30;3.85;;;49.30;49.80;;;;;;5116725;27;20161;-68
2022/08/08 13:50:08;;;;;;;7.25;3.65;;;49.40;50.80;;;;;;5135408;27;20042;-69